Time;durP1;ratioP1;P1;durP2;ratioP2;P2;SDS_P1;SDS_P2;PMS_P1;PMS_P2;Temp;Humidity;BMP_temperature;BMP_pressure;BME280_temperature;BME280_humidity;BME280_pressure;Samples;Min_cycle;Max_cycle;Signal;HPM_P1;HPM_P2
2023/06/20 00:01:06;;;;;;;19.90;14.55;;;;;;;;;;6089532;23;20540;-48
2023/06/20 00:06:25;;;;;;;17.17;14.75;;;;;;;;;;6178451;22;20086;-47
2023/06/20 00:09:19;;;;;;;14.20;12.75;;;;;;;;;;6203015;23;20050;-46
2023/06/20 00:12:06;;;;;;;15.25;13.65;;;;;;;;;;6204736;23;20055;-46
2023/06/20 00:15:00;;;;;;;14.85;13.23;;;;;;;;;;6208308;23;20020;-44
2023/06/20 00:17:47;;;;;;;16.70;14.35;;;;;;;;;;6206677;23;20032;-47
2023/06/20 00:20:41;;;;;;;16.25;14.63;;;;;;;;;;6206883;23;20094;-47
2023/06/20 00:23:29;;;;;;;18.10;15.32;;;;;;;;;;6206635;23;20458;-58
2023/06/20 00:26:22;;;;;;;14.70;13.23;;;;;;;;;;6201256;23;20539;-56
2023/06/20 00:29:09;;;;;;;16.98;15.27;;;;;;;;;;6207357;23;20021;-58
2023/06/20 00:32:03;;;;;;;16.98;15.25;;;;;;;;;;6206745;23;20016;-55
2023/06/20 00:34:50;;;;;;;16.52;14.90;;;;;;;;;;6208131;23;20055;-55
2023/06/20 00:37:44;;;;;;;16.92;15.15;;;;;;;;;;6207221;23;20063;-44
2023/06/20 00:40:32;;;;;;;16.70;15.07;;;;;;;;;;6206644;23;20620;-47
2023/06/20 00:43:25;;;;;;;16.38;14.55;;;;;;;;;;6204400;23;20462;-47
2023/06/20 00:46:22;;;;;;;17.90;16.02;;;;;;;;;;6204571;23;20587;-49
2023/06/20 00:49:09;;;;;;;16.95;15.15;;;;;;;;;;6207803;23;20480;-47
2023/06/20 00:52:03;;;;;;;18.27;16.25;;;;;;;;;;6206462;23;20397;-46
2023/06/20 00:54:51;;;;;;;17.75;15.75;;;;;;;;;;6207188;23;20052;-46
2023/06/20 00:57:48;;;;;;;17.98;16.13;;;;;;;;;;6206266;23;20529;-57
2023/06/20 01:00:34;;;;;;;17.33;15.38;;;;;;;;;;6205192;23;20021;-63
2023/06/20 01:03:28;;;;;;;17.67;15.80;;;;;;;;;;6208937;23;20099;-63
2023/06/20 01:06:42;;;;;;;17.17;15.48;;;;;;;;;;6206907;23;20048;-62
2023/06/20 01:09:54;;;;;;;16.63;14.93;;;;;;;;;;6206470;23;20048;-63
2023/06/20 01:12:41;;;;;;;17.40;14.98;;;;;;;;;;6206455;23;20079;-63
2023/06/20 01:15:35;;;;;;;17.55;15.40;;;;;;;;;;6205079;23;20024;-59
2023/06/20 01:18:44;;;;;;;19.10;16.30;;;;;;;;;;6206657;23;20098;-64
2023/06/20 01:21:42;;;;;;;19.13;17.23;;;;;;;;;;6155717;23;20098;-64
2023/06/20 01:24:34;;;;;;;20.25;18.15;;;;;;;;;;6206590;23;20169;-64
2023/06/20 01:27:33;;;;;;;23.92;18.17;;;;;;;;;;6205687;23;20075;-64
2023/06/20 01:30:25;;;;;;;19.27;17.20;;;;;;;;;;6205748;23;20051;-64
2023/06/20 01:33:22;;;;;;;18.00;16.20;;;;;;;;;;6206083;23;20458;-57
2023/06/20 01:36:19;;;;;;;18.35;16.45;;;;;;;;;;6201571;23;20071;-60
2023/06/20 01:39:11;;;;;;;19.25;17.05;;;;;;;;;;6206616;23;20016;-60
2023/06/20 01:42:05;;;;;;;19.73;17.73;;;;;;;;;;6206520;23;20020;-59
2023/06/20 01:44:52;;;;;;;22.38;18.20;;;;;;;;;;6202632;23;20028;-61
2023/06/20 01:47:47;;;;;;;21.58;19.38;;;;;;;;;;6201870;23;20835;-62
2023/06/20 01:50:35;;;;;;;20.25;18.20;;;;;;;;;;6207012;23;20021;-61
2023/06/20 01:53:30;;;;;;;20.75;18.60;;;;;;;;;;6202869;23;20028;-47
2023/06/20 01:56:18;;;;;;;20.67;18.58;;;;;;;;;;6203766;23;20028;-61
2023/06/20 01:59:12;;;;;;;20.13;17.50;;;;;;;;;;6206633;23;20020;-62
2023/06/20 02:02:00;;;;;;;23.58;19.45;;;;;;;;;;6206063;23;20048;-62
2023/06/20 02:05:03;;;;;;;22.50;19.38;;;;;;;;;;6201933;23;20636;-63
2023/06/20 02:07:58;;;;;;;24.38;20.45;;;;;;;;;;6207905;23;20016;-63
2023/06/20 02:10:52;;;;;;;21.67;19.27;;;;;;;;;;6208010;23;20024;-55
2023/06/20 02:13:40;;;;;;;24.00;20.90;;;;;;;;;;6210473;23;20017;-63
2023/06/20 02:16:35;;;;;;;24.05;21.15;;;;;;;;;;6207188;23;20024;-62
2023/06/20 02:19:22;;;;;;;24.38;21.77;;;;;;;;;;6207038;23;20028;-63
2023/06/20 02:22:17;;;;;;;25.50;21.35;;;;;;;;;;6207301;23;20345;-63
2023/06/20 02:25:15;;;;;;;26.73;21.65;;;;;;;;;;6207211;23;20710;-64
2023/06/20 02:28:10;;;;;;;33.90;25.17;;;;;;;;;;6208483;23;20044;-63
2023/06/20 02:31:05;;;;;;;29.50;23.63;;;;;;;;;;6203751;23;20020;-51
2023/06/20 02:33:59;;;;;;;27.80;23.83;;;;;;;;;;6208078;23;20027;-54
2023/06/20 02:36:47;;;;;;;28.45;24.65;;;;;;;;;;6208864;23;20028;-51
2023/06/20 02:39:40;;;;;;;24.38;21.70;;;;;;;;;;6207717;23;20481;-50
2023/06/20 02:42:27;;;;;;;33.45;26.38;;;;;;;;;;6208215;23;20082;-47
2023/06/20 02:45:21;;;;;;;26.25;23.45;;;;;;;;;;6208434;23;20060;-49
2023/06/20 02:48:20;;;;;;;31.42;26.02;;;;;;;;;;6208193;23;20051;-53
2023/06/20 02:51:22;;;;;;;26.87;22.07;;;;;;;;;;6207706;23;20056;-64
2023/06/20 02:54:09;;;;;;;25.98;23.23;;;;;;;;;;6208292;23;20263;-63
2023/06/20 02:57:05;;;;;;;30.58;24.75;;;;;;;;;;6203982;23;20020;-63
2023/06/20 02:59:57;;;;;;;33.60;25.85;;;;;;;;;;6207138;23;20331;-63
2023/06/20 03:02:56;;;;;;;35.03;27.10;;;;;;;;;;6207855;23;20079;-63
2023/06/20 03:05:50;;;;;;;35.33;26.25;;;;;;;;;;6207194;23;20090;-63
2023/06/20 03:08:49;;;;;;;32.55;26.50;;;;;;;;;;6207447;23;20029;-54
2023/06/20 03:11:32;;;;;;;30.38;25.08;;;;;;;;;;6207654;23;20084;-53
2023/06/20 03:14:25;;;;;;;29.63;25.05;;;;;;;;;;6208091;23;20032;-57
2023/06/20 03:17:13;;;;;;;26.05;23.25;;;;;;;;;;6206667;23;20025;-59
2023/06/20 03:20:09;;;;;;;29.95;26.05;;;;;;;;;;6206829;23;20027;-57
2023/06/20 03:22:55;;;;;;;31.15;24.98;;;;;;;;;;6202097;23;20032;-58
2023/06/20 03:25:48;;;;;;;32.33;26.92;;;;;;;;;;6207121;23;20083;-63
2023/06/20 03:28:35;;;;;;;32.15;27.48;;;;;;;;;;6202296;23;20541;-65
2023/06/20 03:31:29;;;;;;;27.33;24.48;;;;;;;;;;6206657;23;20075;-66
2023/06/20 03:34:16;;;;;;;26.80;23.75;;;;;;;;;;6207720;23;20020;-65
2023/06/20 03:37:10;;;;;;;27.30;24.15;;;;;;;;;;6205806;23;20024;-65
2023/06/20 03:39:57;;;;;;;24.77;22.13;;;;;;;;;;6204425;23;20106;-65
2023/06/20 03:42:51;;;;;;;22.63;20.23;;;;;;;;;;6202996;23;20051;-58
2023/06/20 03:45:39;;;;;;;22.25;19.92;;;;;;;;;;6207714;23;20028;-51
2023/06/20 03:48:33;;;;;;;19.42;17.45;;;;;;;;;;6202687;23;20020;-52
2023/06/20 03:51:21;;;;;;;20.05;17.25;;;;;;;;;;6203329;23;20020;-54
2023/06/20 03:54:15;;;;;;;19.40;17.45;;;;;;;;;;6183901;23;20043;-51
2023/06/20 03:57:03;;;;;;;17.83;16.00;;;;;;;;;;6206217;23;20353;-53
2023/06/20 03:59:56;;;;;;;17.52;15.73;;;;;;;;;;6207420;23;20032;-47
2023/06/20 04:02:45;;;;;;;19.40;15.27;;;;;;;;;;6208646;23;20021;-59
2023/06/20 04:05:50;;;;;;;17.23;15.43;;;;;;;;;;6208039;23;20052;-47
2023/06/20 04:08:45;;;;;;;15.65;14.02;;;;;;;;;;6208895;23;20024;-48
2023/06/20 04:11:38;;;;;;;16.70;14.77;;;;;;;;;;6207058;23;20028;-47
2023/06/20 04:14:25;;;;;;;18.50;15.43;;;;;;;;;;6207382;23;20024;-45
2023/06/20 04:17:19;;;;;;;17.77;15.98;;;;;;;;;;6207022;23;20027;-47
2023/06/20 04:20:16;;;;;;;17.08;15.27;;;;;;;;;;6205233;23;20109;-50
2023/06/20 04:23:01;;;;;;;20.15;16.63;;;;;;;;;;6205189;23;20024;-51
2023/06/20 04:25:55;;;;;;;15.30;13.73;;;;;;;;;;6205828;23;20469;-54
2023/06/20 04:28:49;;;;;;;18.05;15.75;;;;;;;;;;6204902;23;20516;-54
2023/06/20 04:31:43;;;;;;;16.58;14.70;;;;;;;;;;6204855;23;20025;-53
2023/06/20 04:34:30;;;;;;;16.88;15.18;;;;;;;;;;6205153;23;20024;-50
2023/06/20 04:37:24;;;;;;;17.65;14.07;;;;;;;;;;6202730;23;20025;-50
2023/06/20 04:40:11;;;;;;;16.77;14.73;;;;;;;;;;6204941;23;20052;-59
2023/06/20 04:43:05;;;;;;;18.38;15.38;;;;;;;;;;6205333;23;20550;-59
2023/06/20 04:45:52;;;;;;;16.42;14.82;;;;;;;;;;6206349;23;20391;-58
2023/06/20 04:48:46;;;;;;;16.88;15.13;;;;;;;;;;6207919;23;20083;-59
2023/06/20 04:51:33;;;;;;;18.23;15.23;;;;;;;;;;6205169;23;20024;-58
2023/06/20 04:54:29;;;;;;;16.90;15.30;;;;;;;;;;6207298;23;20452;-58
2023/06/20 04:57:14;;;;;;;18.02;15.55;;;;;;;;;;6205986;23;20020;-54
2023/06/20 05:00:12;;;;;;;16.40;14.45;;;;;;;;;;6207559;23;20024;-68
2023/06/20 05:02:58;;;;;;;16.10;14.40;;;;;;;;;;6207101;23;20024;-68
2023/06/20 05:06:02;;;;;;;16.98;15.18;;;;;;;;;;6206949;23;20021;-68
2023/06/20 05:08:56;;;;;;;18.90;15.60;;;;;;;;;;6206587;23;20028;-68
2023/06/20 05:11:50;;;;;;;18.13;14.45;;;;;;;;;;6205819;23;20074;-67
2023/06/20 05:14:37;;;;;;;16.92;14.30;;;;;;;;;;6206649;23;20021;-59
2023/06/20 05:17:31;;;;;;;17.75;13.75;;;;;;;;;;6205786;23;20020;-64
2023/06/20 05:20:19;;;;;;;15.00;12.43;;;;;;;;;;6206021;23;20621;-64
2023/06/20 05:23:12;;;;;;;13.70;11.70;;;;;;;;;;6205748;23;20020;-65
2023/06/20 05:26:01;;;;;;;14.00;12.00;;;;;;;;;;6206409;23;20020;-65
2023/06/20 05:28:55;;;;;;;14.80;12.50;;;;;;;;;;6204033;23;20025;-65
2023/06/20 05:31:42;;;;;;;16.15;12.32;;;;;;;;;;6204080;23;20544;-56
2023/06/20 05:34:38;;;;;;;14.25;12.15;;;;;;;;;;6205653;23;20104;-68
2023/06/20 05:37:23;;;;;;;17.58;11.98;;;;;;;;;;6206240;23;20397;-53
2023/06/20 05:40:17;;;;;;;15.73;11.75;;;;;;;;;;6206873;23;20079;-55
2023/06/20 05:43:04;;;;;;;12.77;11.48;;;;;;;;;;6205407;23;20473;-54
2023/06/20 05:45:58;;;;;;;15.82;11.57;;;;;;;;;;6206343;23;20024;-57
2023/06/20 05:48:48;;;;;;;14.05;11.85;;;;;;;;;;6201497;23;20564;-52
2023/06/20 05:51:40;;;;;;;13.15;11.32;;;;;;;;;;6206635;23;20535;-49
2023/06/20 05:54:26;;;;;;;13.50;11.18;;;;;;;;;;6205091;23;20032;-60
2023/06/20 05:57:21;;;;;;;14.00;10.75;;;;;;;;;;6206159;23;20027;-60
2023/06/20 06:00:14;;;;;;;15.02;11.45;;;;;;;;;;6205984;23;20020;-60
2023/06/20 06:03:07;;;;;;;14.10;10.65;;;;;;;;;;6206201;23;20028;-60
2023/06/20 06:06:03;;;;;;;11.70;10.60;;;;;;;;;;6199471;23;20031;-61
2023/06/20 06:09:01;;;;;;;15.18;11.73;;;;;;;;;;6205189;23;20346;-59
2023/06/20 06:11:55;;;;;;;12.52;11.10;;;;;;;;;;6203962;23;20071;-46
2023/06/20 06:14:51;;;;;;;19.40;11.30;;;;;;;;;;6203159;23;20665;-47
2023/06/20 06:17:37;;;;;;;13.02;10.43;;;;;;;;;;6203414;23;20055;-52
2023/06/20 06:20:30;;;;;;;14.07;11.02;;;;;;;;;;6207767;23;20127;-51
2023/06/20 06:23:17;;;;;;;13.40;10.65;;;;;;;;;;6207331;23;20021;-54
2023/06/20 06:26:11;;;;;;;11.63;10.43;;;;;;;;;;6205349;23;20021;-51
2023/06/20 06:28:59;;;;;;;11.20;10.10;;;;;;;;;;6207045;23;20596;-57
2023/06/20 06:31:52;;;;;;;19.00;10.85;;;;;;;;;;6207924;23;20082;-61
2023/06/20 06:34:41;;;;;;;12.23;10.93;;;;;;;;;;6207140;23;20025;-61
2023/06/20 06:37:33;;;;;;;12.50;10.07;;;;;;;;;;6207489;23;20020;-61
2023/06/20 06:40:21;;;;;;;12.73;11.07;;;;;;;;;;6206535;23;20098;-61
2023/06/20 06:43:14;;;;;;;16.08;11.25;;;;;;;;;;6203024;23;20470;-60
2023/06/20 06:46:02;;;;;;;12.73;10.93;;;;;;;;;;6203672;23;20051;-58
2023/06/20 06:48:55;;;;;;;13.90;11.05;;;;;;;;;;6207347;23;20016;-59
2023/06/20 06:51:42;;;;;;;13.50;10.80;;;;;;;;;;6203244;23;20544;-55
2023/06/20 06:54:37;;;;;;;11.75;10.13;;;;;;;;;;6207251;23;20024;-57
2023/06/20 06:57:23;;;;;;;14.75;11.27;;;;;;;;;;6207051;23;20401;-58
2023/06/20 07:00:17;;;;;;;13.30;10.88;;;;;;;;;;6207906;23;20090;-58
2023/06/20 07:03:08;;;;;;;10.13;9.13;;;;;;;;;;6209274;23;20078;-58
2023/06/20 07:06:05;;;;;;;12.07;10.98;;;;;;;;;;6208633;23;20023;-50
2023/06/20 07:08:52;;;;;;;12.00;10.70;;;;;;;;;;6209112;23;20057;-59
2023/06/20 07:11:46;;;;;;;10.65;9.55;;;;;;;;;;6207088;23;20087;-58
2023/06/20 07:14:34;;;;;;;15.05;11.48;;;;;;;;;;6208837;23;20026;-59
2023/06/20 07:17:27;;;;;;;11.23;10.05;;;;;;;;;;6207030;23;20024;-58
2023/06/20 07:20:15;;;;;;;11.15;9.90;;;;;;;;;;6207318;23;20563;-58
2023/06/20 07:23:08;;;;;;;13.88;10.00;;;;;;;;;;6209072;23;20021;-52
2023/06/20 07:25:56;;;;;;;17.07;11.03;;;;;;;;;;6210380;23;20024;-64
2023/06/20 07:28:49;;;;;;;15.70;10.45;;;;;;;;;;6208704;23;20528;-63
2023/06/20 07:31:36;;;;;;;14.32;10.57;;;;;;;;;;6208020;23;20055;-64
2023/06/20 07:34:30;;;;;;;16.13;10.18;;;;;;;;;;6207652;23;20353;-62
2023/06/20 07:37:17;;;;;;;14.20;10.48;;;;;;;;;;6207477;23;20020;-63
2023/06/20 07:40:20;;;;;;;14.25;10.38;;;;;;;;;;6208082;23;20071;-64
2023/06/20 07:43:07;;;;;;;13.38;11.13;;;;;;;;;;6208083;23;20087;-52
2023/06/20 07:46:01;;;;;;;12.13;10.88;;;;;;;;;;6208089;23;20027;-50
2023/06/20 07:48:50;;;;;;;15.98;10.73;;;;;;;;;;6203219;23;20391;-48
2023/06/20 07:51:43;;;;;;;12.02;10.63;;;;;;;;;;6207775;23;20075;-62
2023/06/20 07:54:29;;;;;;;16.38;12.05;;;;;;;;;;6207580;23;20225;-59
2023/06/20 07:57:30;;;;;;;11.95;10.75;;;;;;;;;;6208271;23;20025;-57
2023/06/20 08:00:17;;;;;;;13.63;11.73;;;;;;;;;;6208951;23;20094;-59
2023/06/20 08:03:25;;;;;;;12.52;11.23;;;;;;;;;;6207089;23;20031;-58
2023/06/20 08:06:12;;;;;;;18.23;11.68;;;;;;;;;;6204003;23;20551;-58
2023/06/20 08:09:05;;;;;;;12.43;11.23;;;;;;;;;;6207041;23;20465;-49
2023/06/20 08:11:55;;;;;;;12.52;10.90;;;;;;;;;;6207433;23;20509;-54
2023/06/20 08:14:52;;;;;;;12.07;10.77;;;;;;;;;;6207338;23;20071;-54
2023/06/20 08:17:39;;;;;;;12.13;10.43;;;;;;;;;;6206652;23;20020;-56
2023/06/20 08:20:33;;;;;;;20.40;11.35;;;;;;;;;;6206560;23;20490;-53
2023/06/20 08:23:25;;;;;;;29.90;12.30;;;;;;;;;;6207988;23;20024;-54
2023/06/20 08:26:18;;;;;;;13.70;11.60;;;;;;;;;;6206696;23;20680;-56
2023/06/20 08:29:08;;;;;;;14.40;11.75;;;;;;;;;;6207574;23;20024;-51
2023/06/20 08:31:59;;;;;;;16.33;10.88;;;;;;;;;;6207966;23;20067;-52
2023/06/20 08:34:49;;;;;;;13.32;11.93;;;;;;;;;;6209592;23;20075;-51
2023/06/20 08:37:41;;;;;;;13.98;11.57;;;;;;;;;;6207122;23;20461;-52
2023/06/20 08:40:28;;;;;;;12.50;11.20;;;;;;;;;;6207287;23;20466;-49
2023/06/20 08:43:21;;;;;;;13.05;11.18;;;;;;;;;;6206894;23;20025;-49
2023/06/20 08:46:08;;;;;;;16.52;11.45;;;;;;;;;;6207883;23;20051;-67
2023/06/20 08:49:03;;;;;;;13.95;11.32;;;;;;;;;;6207109;23;20389;-67
2023/06/20 08:51:50;;;;;;;17.15;11.05;;;;;;;;;;6208447;23;20067;-67
2023/06/20 08:54:44;;;;;;;13.20;11.63;;;;;;;;;;6206957;23;20025;-66
2023/06/20 08:57:32;;;;;;;14.07;10.77;;;;;;;;;;6206741;23;20028;-53
2023/06/20 09:00:25;;;;;;;13.73;11.18;;;;;;;;;;6207330;23;20031;-60
2023/06/20 09:03:19;;;;;;;18.38;12.13;;;;;;;;;;6206783;23;20395;-60
2023/06/20 09:06:20;;;;;;;12.60;11.38;;;;;;;;;;6204528;23;20021;-60
2023/06/20 09:09:14;;;;;;;13.63;11.00;;;;;;;;;;6205951;23;20557;-60
2023/06/20 09:12:08;;;;;;;16.23;11.75;;;;;;;;;;6206441;23;20072;-61
2023/06/20 09:14:55;;;;;;;13.73;11.20;;;;;;;;;;6206713;23;20022;-67
2023/06/20 09:17:59;;;;;;;13.93;11.48;;;;;;;;;;6207625;23;20021;-46
2023/06/20 09:20:44;;;;;;;14.60;11.85;;;;;;;;;;6207550;23;20541;-48
2023/06/20 09:23:38;;;;;;;16.52;11.80;;;;;;;;;;6207134;23;20021;-50
2023/06/20 09:26:25;;;;;;;17.25;12.88;;;;;;;;;;6206388;23;20051;-50
2023/06/20 09:29:19;;;;;;;15.07;11.73;;;;;;;;;;6208138;23;20021;-47
2023/06/20 09:32:19;;;;;;;13.60;12.20;;;;;;;;;;6207297;23;20051;-53
2023/06/20 09:35:13;;;;;;;14.10;12.30;;;;;;;;;;6206508;23;20043;-60
2023/06/20 09:38:03;;;;;;;14.32;12.88;;;;;;;;;;6206131;23;20025;-60
2023/06/20 09:40:56;;;;;;;13.57;12.25;;;;;;;;;;6207805;23;20074;-60
2023/06/20 09:43:44;;;;;;;12.98;11.68;;;;;;;;;;6207576;23;20083;-60
2023/06/20 09:46:37;;;;;;;14.02;12.27;;;;;;;;;;6206585;23;20032;-60
2023/06/20 09:49:34;;;;;;;13.07;11.63;;;;;;;;;;6208140;23;20040;-60
2023/06/20 09:52:22;;;;;;;13.25;11.95;;;;;;;;;;6207131;23;20021;-67
2023/06/20 09:55:15;;;;;;;14.48;12.40;;;;;;;;;;6206988;23;20128;-67
2023/06/20 09:58:04;;;;;;;17.85;12.80;;;;;;;;;;6202567;23;20050;-67
2023/06/20 10:01:01;;;;;;;13.68;12.38;;;;;;;;;;6206227;23;20026;-53
2023/06/20 10:03:49;;;;;;;13.95;12.40;;;;;;;;;;6206677;23;20409;-66
2023/06/20 10:06:56;;;;;;;15.40;12.80;;;;;;;;;;6205658;23;20024;-60
2023/06/20 10:09:54;;;;;;;14.40;12.98;;;;;;;;;;6207115;23;20020;-59
2023/06/20 10:12:48;;;;;;;14.32;12.00;;;;;;;;;;6205229;23;20579;-59
2023/06/20 10:15:35;;;;;;;14.57;12.73;;;;;;;;;;6207705;23;20103;-59
2023/06/20 10:18:32;;;;;;;14.55;13.05;;;;;;;;;;6207090;23;20028;-59
2023/06/20 10:21:39;;;;;;;16.25;13.20;;;;;;;;;;6207312;23;20017;-51
2023/06/20 10:24:33;;;;;;;14.57;13.07;;;;;;;;;;6206851;23;20067;-68
2023/06/20 10:27:24;;;;;;;13.95;12.48;;;;;;;;;;6206469;23;20023;-66
2023/06/20 10:30:37;;;;;;;14.57;12.95;;;;;;;;;;6209070;23;20073;-67
2023/06/20 10:33:26;;;;;;;13.85;12.38;;;;;;;;;;6209349;23;20020;-66
2023/06/20 10:36:20;;;;;;;14.50;12.60;;;;;;;;;;6210258;23;20130;-67
2023/06/20 10:39:08;;;;;;;13.52;12.15;;;;;;;;;;6208013;23;20028;-57
2023/06/20 10:42:07;;;;;;;13.80;12.38;;;;;;;;;;6208294;23;20024;-56
2023/06/20 10:45:29;;;;;;;13.80;12.40;;;;;;;;;;6207858;23;20458;-52
2023/06/20 10:48:20;;;;;;;14.32;12.18;;;;;;;;;;6154837;23;20048;-54
2023/06/20 10:51:09;;;;;;;17.80;12.70;;;;;;;;;;6209322;23;20025;-54
2023/06/20 10:54:09;;;;;;;14.88;12.18;;;;;;;;;;6208144;23;20020;-52
2023/06/20 10:56:56;;;;;;;13.52;12.13;;;;;;;;;;6209314;23;20028;-49
2023/06/20 10:59:50;;;;;;;14.93;12.32;;;;;;;;;;6206622;23;20024;-49
2023/06/20 11:02:38;;;;;;;14.32;12.15;;;;;;;;;;6208490;23;20354;-46
2023/06/20 11:05:31;;;;;;;15.68;13.40;;;;;;;;;;6207225;23;20075;-50
2023/06/20 11:08:25;;;;;;;13.85;12.35;;;;;;;;;;6175948;23;20498;-62
2023/06/20 11:11:30;;;;;;;17.88;12.95;;;;;;;;;;6177550;23;20047;-58
2023/06/20 11:14:21;;;;;;;15.32;12.48;;;;;;;;;;6177799;23;20470;-59
2023/06/20 11:17:15;;;;;;;15.43;11.98;;;;;;;;;;6178096;23;20481;-58
2023/06/20 11:20:04;;;;;;;13.25;12.05;;;;;;;;;;6178418;23;20508;-58
2023/06/20 11:22:57;;;;;;;15.52;12.55;;;;;;;;;;6177785;23;20033;-58
2023/06/20 11:25:45;;;;;;;13.13;11.88;;;;;;;;;;6179101;23;20478;-58
2023/06/20 11:28:38;;;;;;;12.80;11.65;;;;;;;;;;6178637;23;20029;-51
2023/06/20 11:31:40;;;;;;;13.40;12.07;;;;;;;;;;6179001;23;20096;-51
2023/06/20 11:34:50;;;;;;;13.00;11.65;;;;;;;;;;6179028;23;20024;-50
2023/06/20 11:37:17;;;;;;;15.10;11.93;;;;;;;;;;6172482;23;20033;-51
2023/06/20 11:40:12;;;;;;;13.90;12.38;;;;;;;;;;6174317;23;20032;-52
2023/06/20 11:42:59;;;;;;;13.18;11.88;;;;;;;;;;6174575;23;20020;-50
2023/06/20 11:45:59;;;;;;;13.20;11.90;;;;;;;;;;6178672;23;20466;-59
2023/06/20 11:48:56;;;;;;;13.48;12.18;;;;;;;;;;6176639;23;20537;-49
2023/06/20 11:51:41;;;;;;;15.52;12.18;;;;;;;;;;6177144;23;20021;-50
2023/06/20 11:54:48;;;;;;;11.98;10.77;;;;;;;;;;6177949;23;20079;-51
2023/06/20 11:57:38;;;;;;;16.02;11.52;;;;;;;;;;6179143;23;20100;-49
2023/06/20 12:00:30;;;;;;;12.52;10.80;;;;;;;;;;6178080;23;20029;-51
2023/06/20 12:03:25;;;;;;;15.27;11.32;;;;;;;;;;6176932;23;20048;-52
2023/06/20 12:06:31;;;;;;;13.57;11.98;;;;;;;;;;6184164;23;20357;-53
2023/06/20 12:09:27;;;;;;;12.95;10.98;;;;;;;;;;6207801;23;20033;-51
2023/06/20 12:12:18;;;;;;;13.68;11.70;;;;;;;;;;6207112;23;20553;-52
2023/06/20 12:15:06;;;;;;;13.10;11.63;;;;;;;;;;6206165;23;20020;-54
2023/06/20 12:17:59;;;;;;;12.93;11.65;;;;;;;;;;6207783;23;20028;-54
2023/06/20 12:20:46;;;;;;;14.55;11.80;;;;;;;;;;6203279;23;20025;-67
2023/06/20 12:23:40;;;;;;;16.13;12.40;;;;;;;;;;6207784;23;20478;-54
2023/06/20 12:26:28;;;;;;;12.88;11.57;;;;;;;;;;6207658;23;20025;-54
2023/06/20 12:29:21;;;;;;;13.65;11.93;;;;;;;;;;6208264;23;20031;-51
2023/06/20 12:32:09;;;;;;;12.98;11.35;;;;;;;;;;6207764;23;20032;-53
2023/06/20 12:35:02;;;;;;;13.25;12.05;;;;;;;;;;6205991;23;20024;-54
2023/06/20 12:37:50;;;;;;;13.10;11.73;;;;;;;;;;6206887;23;20024;-50
2023/06/20 12:40:44;;;;;;;16.40;13.07;;;;;;;;;;6204121;23;20086;-67
2023/06/20 12:43:38;;;;;;;14.50;12.77;;;;;;;;;;6206796;23;20024;-67
2023/06/20 12:46:25;;;;;;;13.47;12.17;;;;;;;;;;6207806;23;20056;-66
2023/06/20 12:49:20;;;;;;;12.85;11.65;;;;;;;;;;6207336;23;20029;-47
2023/06/20 12:52:12;;;;;;;24.83;12.60;;;;;;;;;;6207152;23;20083;-67
2023/06/20 12:55:07;;;;;;;13.65;12.15;;;;;;;;;;6207602;23;20021;-66
2023/06/20 12:57:54;;;;;;;13.60;11.50;;;;;;;;;;6206627;23;20717;-67
2023/06/20 13:00:47;;;;;;;14.55;12.38;;;;;;;;;;6207990;23;20167;-67
2023/06/20 13:03:35;;;;;;;15.35;11.68;;;;;;;;;;6206506;23;20124;-67
2023/06/20 13:06:35;;;;;;;14.10;12.00;;;;;;;;;;6206238;23;20058;-67
2023/06/20 13:09:29;;;;;;;13.38;12.07;;;;;;;;;;6206987;23;20020;-59
2023/06/20 13:12:23;;;;;;;13.23;12.00;;;;;;;;;;6207045;23;20044;-49
2023/06/20 13:15:12;;;;;;;15.20;12.65;;;;;;;;;;6208774;23;20024;-51
2023/06/20 13:18:04;;;;;;;14.20;11.73;;;;;;;;;;6208714;23;20361;-51
2023/06/20 13:20:58;;;;;;;13.82;12.57;;;;;;;;;;6207326;23;20028;-49
2023/06/20 13:23:44;;;;;;;13.75;12.00;;;;;;;;;;6206879;23;20024;-51
2023/06/20 13:26:38;;;;;;;13.23;11.82;;;;;;;;;;6206284;23;20028;-52
2023/06/20 13:29:26;;;;;;;18.77;12.35;;;;;;;;;;6206504;23;20071;-52
2023/06/20 13:32:19;;;;;;;12.85;11.55;;;;;;;;;;6206363;23;20094;-49
2023/06/20 13:35:14;;;;;;;14.85;13.02;;;;;;;;;;6205010;23;20359;-49
2023/06/20 13:38:08;;;;;;;13.23;11.77;;;;;;;;;;6205714;23;20021;-55
2023/06/20 13:40:56;;;;;;;13.75;12.10;;;;;;;;;;6207801;23;20021;-67
2023/06/20 13:43:49;;;;;;;13.48;12.02;;;;;;;;;;6205397;23;20465;-67
2023/06/20 13:46:37;;;;;;;12.63;11.20;;;;;;;;;;6207128;23;20623;-67
2023/06/20 13:49:30;;;;;;;13.27;11.48;;;;;;;;;;6202384;23;20327;-67
2023/06/20 13:52:17;;;;;;;13.35;11.95;;;;;;;;;;6204105;23;20024;-67
2023/06/20 13:55:11;;;;;;;15.65;12.18;;;;;;;;;;6206974;23;20016;-50
2023/06/20 13:57:58;;;;;;;14.25;12.68;;;;;;;;;;6208417;23;20401;-51
2023/06/20 14:00:38;;;;;;;14.93;11.48;;;;;;;;;;6205701;23;20025;-49
2023/06/20 14:03:19;;;;;;;13.88;12.48;;;;;;;;;;6203439;23;20393;-50
2023/06/20 14:06:13;;;;;;;13.00;11.60;;;;;;;;;;6203730;23;20083;-47
2023/06/20 14:09:07;;;;;;;12.88;11.00;;;;;;;;;;6206265;23;20024;-49
2023/06/20 14:12:02;;;;;;;12.98;11.68;;;;;;;;;;6204036;23;20016;-59
2023/06/20 14:14:49;;;;;;;12.25;10.57;;;;;;;;;;6206311;23;20058;-52
2023/06/20 14:17:43;;;;;;;12.38;11.07;;;;;;;;;;6205082;23;20048;-54
2023/06/20 14:20:30;;;;;;;10.93;9.93;;;;;;;;;;6203742;23;20088;-54
2023/06/20 14:23:24;;;;;;;11.80;10.50;;;;;;;;;;6206563;23;20024;-55
2023/06/20 14:26:12;;;;;;;12.38;10.50;;;;;;;;;;6206770;23;20024;-50
2023/06/20 14:29:06;;;;;;;12.20;10.82;;;;;;;;;;6206959;23;20066;-52
2023/06/20 14:31:53;;;;;;;14.65;11.25;;;;;;;;;;6207370;23;20024;-50
2023/06/20 14:34:47;;;;;;;26.92;11.52;;;;;;;;;;6201685;23;20020;-67
2023/06/20 14:37:34;;;;;;;12.30;11.05;;;;;;;;;;6199414;23;20024;-66
2023/06/20 14:40:28;;;;;;;16.17;11.38;;;;;;;;;;6201877;23;20095;-65
2023/06/20 14:43:15;;;;;;;11.98;10.77;;;;;;;;;;6205290;23;20028;-66
2023/06/20 14:46:10;;;;;;;11.15;9.98;;;;;;;;;;6201292;23;20075;-67
2023/06/20 14:48:57;;;;;;;12.27;11.07;;;;;;;;;;6206383;23;20043;-53
2023/06/20 14:51:51;;;;;;;11.40;10.00;;;;;;;;;;6203537;23;20024;-51
2023/06/20 14:54:39;;;;;;;12.55;10.57;;;;;;;;;;6205951;23;20075;-57
2023/06/20 14:57:32;;;;;;;11.93;10.70;;;;;;;;;;6199842;23;20110;-55
2023/06/20 15:00:20;;;;;;;12.07;10.77;;;;;;;;;;6202593;23;20361;-53
2023/06/20 15:03:13;;;;;;;14.52;10.90;;;;;;;;;;6199298;23;20075;-56
2023/06/20 15:06:01;;;;;;;11.60;10.35;;;;;;;;;;6201968;22;20021;-53
2023/06/20 15:08:41;;;;;;;11.95;10.75;;;;;;;;;;6204734;23;20052;-65
2023/06/20 15:11:28;;;;;;;13.27;10.70;;;;;;;;;;6202557;23;20512;-58
2023/06/20 15:14:23;;;;;;;12.10;10.90;;;;;;;;;;6202627;23;20024;-58
2023/06/20 15:17:10;;;;;;;13.10;11.55;;;;;;;;;;6205551;23;20425;-59
2023/06/20 15:20:05;;;;;;;12.40;11.10;;;;;;;;;;6205964;23;20021;-59
2023/06/20 15:22:52;;;;;;;15.73;12.15;;;;;;;;;;6206716;23;20044;-58
2023/06/20 15:25:46;;;;;;;15.10;11.20;;;;;;;;;;6204730;23;20083;-58
2023/06/20 15:28:34;;;;;;;12.52;10.82;;;;;;;;;;6204166;23;20720;-58
2023/06/20 15:31:27;;;;;;;13.25;11.30;;;;;;;;;;6205150;23;20024;-51
2023/06/20 15:34:15;;;;;;;12.98;11.60;;;;;;;;;;6205612;23;20098;-54
2023/06/20 15:37:10;;;;;;;13.18;10.98;;;;;;;;;;6204897;23;20545;-51
2023/06/20 15:39:57;;;;;;;12.00;10.32;;;;;;;;;;6208716;23;20028;-52
2023/06/20 15:42:51;;;;;;;13.57;10.65;;;;;;;;;;6207201;23;20419;-55
2023/06/20 15:45:39;;;;;;;13.97;11.50;;;;;;;;;;6207974;23;20461;-55
2023/06/20 15:48:32;;;;;;;12.32;10.90;;;;;;;;;;6206843;23;20252;-51
2023/06/20 15:51:28;;;;;;;12.38;10.70;;;;;;;;;;6208221;23;20438;-50
2023/06/20 15:54:21;;;;;;;12.45;11.15;;;;;;;;;;6208537;23;20063;-45
2023/06/20 15:57:10;;;;;;;13.73;12.05;;;;;;;;;;6207866;23;20021;-45
2023/06/20 16:00:05;;;;;;;13.20;11.63;;;;;;;;;;6207367;23;20067;-49
2023/06/20 16:02:50;;;;;;;15.82;12.38;;;;;;;;;;6205997;23;20496;-59
2023/06/20 16:05:43;;;;;;;14.65;12.43;;;;;;;;;;6207955;23;20071;-49
2023/06/20 16:08:37;;;;;;;13.77;12.30;;;;;;;;;;6207173;23;20024;-52
2023/06/20 16:11:30;;;;;;;17.60;12.27;;;;;;;;;;6207384;23;20024;-54
2023/06/20 16:14:18;;;;;;;18.50;12.65;;;;;;;;;;6208227;23;20466;-50
2023/06/20 16:17:11;;;;;;;14.30;12.02;;;;;;;;;;6208922;23;20025;-51
2023/06/20 16:20:08;;;;;;;16.05;12.63;;;;;;;;;;6206104;23;20293;-51
2023/06/20 16:23:02;;;;;;;16.17;12.93;;;;;;;;;;6209676;23;20055;-48
2023/06/20 16:26:00;;;;;;;15.98;12.45;;;;;;;;;;6207629;23;20021;-51
2023/06/20 16:28:53;;;;;;;18.25;12.93;;;;;;;;;;6206965;23;20028;-50
2023/06/20 16:31:41;;;;;;;15.38;13.13;;;;;;;;;;6206896;23;20401;-47
2023/06/20 16:34:34;;;;;;;15.10;12.63;;;;;;;;;;6206933;23;20474;-47
2023/06/20 16:37:22;;;;;;;14.45;11.82;;;;;;;;;;6207700;23;20091;-49
2023/06/20 16:40:16;;;;;;;16.17;13.57;;;;;;;;;;6207694;23;20025;-47
2023/06/20 16:43:03;;;;;;;15.32;13.05;;;;;;;;;;6207803;23;20024;-51